| time (UTC) | temp C | wind direction | speed KPH | gust KPH | rain 1hr cm | rain 24hr cm | rain mn cm | humidity % | barometer mb |
| 20260905133937 | 21 | 248 | 3.2 | 4.8 | 0.00 | 0.36 | 0.36 | 62 | 1021.3 |
| 20260905133049 | 21 | 189 | 1.6 | 11.3 | 0.00 | 0.36 | 0.36 | 62 | 1019.8 |
| 20260905131559 | 22 | 205 | 3.2 | 12.9 | 0.00 | 0.36 | 0.36 | 59 | 1020.0 |
| 20260905130048 | 22 | 253 | 1.6 | 6.4 | 0.00 | 0.36 | 0.36 | 60 | 1020.0 |
| 20260905124545 | 22 | 268 | 3.2 | 9.7 | 0.00 | 0.36 | 0.36 | 62 | 1020.0 |
| 20260905123908 | 21 | 248 | 3.2 | 4.8 | 0.00 | 0.36 | 0.36 | 66 | 1021.6 |
| 20260905123043 | 20 | 267 | 3.2 | 17.7 | 0.00 | 0.36 | 0.36 | 67 | 1020.0 |
| 20260905121542 | 19 | 253 | 3.2 | 11.3 | 0.00 | 0.36 | 0.36 | 66 | 1020.1 |
| 20260905120042 | 20 | 296 | 3.2 | 22.5 | 0.00 | 0.36 | 0.36 | 67 | 1020.2 |
| 20260905114549 | 20 | 211 | 3.2 | 12.9 | 0.00 | 0.36 | 0.36 | 68 | 1020.3 |
| 20260905113940 | 20 | 225 | 4.8 | 11.3 | 0.00 | 0.36 | 0.36 | 72 | 1022.0 |
| 20260905113041 | 20 | 251 | 4.8 | 12.9 | 0.00 | 0.36 | 0.36 | 72 | 1020.4 |
| 20260905111543 | 19 | 198 | 1.6 | 14.5 | 0.00 | 0.36 | 0.36 | 71 | 1020.5 |
| 20260905110040 | 19 | 275 | 1.6 | 4.8 | 0.00 | 0.36 | 0.36 | 73 | 1020.6 |
| 20260905104544 | 18 | 226 | 1.6 | 9.7 | 0.00 | 0.36 | 0.36 | 78 | 1020.6 |
| 20260905103910 | 18 | 270 | 1.6 | 4.8 | 0.00 | 0.36 | 0.36 | 77 | 1022.1 |
| 20260905103039 | 18 | 269 | 1.6 | 6.4 | 0.00 | 0.36 | 0.36 | 77 | 1020.6 |
| 20260905101538 | 18 | 268 | 0.0 | 4.8 | 0.00 | 0.36 | 0.36 | 78 | 1020.7 |
| 20260905100037 | 18 | 251 | 6.4 | 16.1 | 0.00 | 0.36 | 0.36 | 80 | 1020.6 |
| 20260905094537 | 17 | 242 | 4.8 | 17.7 | 0.00 | 0.38 | 0.36 | 80 | 1020.7 |
| 20260905094044 | 17 | 225 | 8.0 | 9.7 | 0.00 | 0.38 | 0.36 | 81 | 1022.1 |
| 20260905093039 | 17 | 207 | 8.0 | 16.1 | 0.00 | 0.38 | 0.36 | 81 | 1020.6 |
| 20260905091537 | 17 | 215 | 4.8 | 16.1 | 0.00 | 0.38 | 0.36 | 83 | 1020.6 |
| 20260905090044 | 16 | 206 | 3.2 | 16.1 | 0.00 | 0.38 | 0.36 | 84 | 1020.5 |
| 20260905084534 | 16 | 211 | 4.8 | 16.1 | 0.00 | 0.38 | 0.36 | 85 | 1020.5 |
| 20260905083915 | 16 | 248 | 1.6 | 3.2 | 0.00 | 0.38 | 0.36 | 88 | 1022.0 |
| 20260905083043 | 15 | 261 | 0.0 | 11.3 | 0.00 | 0.38 | 0.36 | 88 | 1020.5 |
| 20260905081531 | 15 | 265 | 1.6 | 11.3 | 0.00 | 0.38 | 0.36 | 89 | 1020.4 |
| 20260905080040 | 15 | 221 | 1.6 | 8.0 | 0.00 | 0.38 | 0.36 | 90 | 1020.3 |
| 20260905074529 | 15 | 210 | 8.0 | 16.1 | 0.00 | 0.38 | 0.36 | 90 | 1020.2 |
| 20260905073945 | 15 | 0.0 | 1.6 | 0.00 | 0.38 | 0.36 | 91 | 1021.3 | |
| 20260905073028 | 15 | 224 | 0.0 | 16.1 | 0.00 | 0.38 | 0.36 | 91 | 1020.0 |
| 20260905071527 | 15 | 207 | 3.2 | 12.9 | 0.00 | 0.38 | 0.36 | 92 | 1019.7 |
| 20260905070025 | 14 | 211 | 3.2 | 8.0 | 0.00 | 0.38 | 0.36 | 92 | 1019.7 |
| 20260905064524 | 14 | 215 | 3.2 | 8.0 | 0.00 | 0.38 | 0.36 | 92 | 1019.6 |
| 20260905063916 | 14 | 203 | 4.8 | 8.0 | 0.00 | 0.38 | 0.36 | 92 | 1020.8 |
| 20260905063023 | 14 | 210 | 4.8 | 9.7 | 0.00 | 0.38 | 0.36 | 92 | 1019.4 |
| 20260905061522 | 13 | 219 | 1.6 | 6.4 | 0.00 | 0.38 | 0.36 | 92 | 1019.4 |
| 20260905060027 | 13 | 219 | 1.6 | 6.4 | 0.00 | 0.38 | 0.36 | 91 | 1019.3 |
| 20260905054531 | 13 | 219 | 1.6 | 6.4 | 0.00 | 0.38 | 0.36 | 91 | 1019.3 |
| 20260905053846 | 13 | 225 | 1.6 | 4.8 | 0.00 | 0.38 | 0.36 | 91 | 1020.4 |
| 20260905053018 | 12 | 219 | 1.6 | 4.8 | 0.00 | 0.38 | 0.36 | 91 | 1019.1 |
| 20260905051525 | 12 | 219 | 0.0 | 1.6 | 0.00 | 0.38 | 0.36 | 90 | 1018.9 |
| 20260905050017 | 12 | 219 | 0.0 | 3.2 | 0.00 | 0.38 | 0.36 | 90 | 1018.7 |
| 20260905044514 | 12 | 219 | 1.6 | 4.8 | 0.00 | 0.38 | 0.36 | 90 | 1018.3 |
| 20260905043923 | 12 | 225 | 1.6 | 1.6 | 0.00 | 0.38 | 0.36 | 89 | 1019.7 |
| 20260905043010 | 12 | 219 | 0.0 | 3.2 | 0.00 | 0.38 | 0.36 | 89 | 1018.2 |
| 20260905041510 | 12 | 219 | 0.0 | 3.2 | 0.05 | 0.38 | 0.36 | 89 | 1017.9 |
| 20260905040009 | 12 | 219 | 0.0 | 3.2 | 0.13 | 0.38 | 0.36 | 89 | 1017.9 |
| 20260905034510 | 12 | 219 | 1.6 | 6.4 | 0.18 | 0.38 | 0.36 | 88 | 1018.0 |
| 20260905034033 | 13 | 225 | 4.8 | 8.0 | 0.23 | 0.38 | 0.36 | 87 | 1019.5 |
| 20260905033005 | 13 | 219 | 3.2 | 8.0 | 0.23 | 0.38 | 0.36 | 87 | 1017.8 |
| 20260905031502 | 13 | 227 | 1.6 | 6.4 | 0.20 | 0.33 | 0.33 | 86 | 1017.9 |
| 20260905030100 | 13 | 228 | 0.0 | 4.8 | 0.15 | 0.25 | 0.23 | 86 | 1017.9 |
| 20260905024558 | 14 | 228 | 0.0 | 4.8 | 0.10 | 0.20 | 0.18 | 86 | 1017.8 |
| 20260905023913 | 15 | 0.0 | 0.0 | 0.13 | 0.15 | 0.15 | 84 | 1019.3 | |
| 20260905023055 | 14 | 227 | 0.0 | 3.2 | 0.13 | 0.15 | 0.15 | 85 | 1017.5 |
| 20260905021557 | 14 | 227 | 0.0 | 0.0 | 0.10 | 0.15 | 0.13 | 83 | 1017.6 |
| 20260905020054 | 15 | 227 | 0.0 | 0.0 | 0.08 | 0.13 | 0.10 | 82 | 1017.3 |
| 20260905014551 | 15 | 227 | 0.0 | 1.6 | 0.08 | 0.10 | 0.08 | 79 | 1016.8 |
| 20260905013823 | 16 | 0.0 | 0.0 | 0.03 | 0.05 | 0.03 | 77 | 1018.6 | |
| 20260905013047 | 15 | 227 | 0.0 | 6.4 | 0.03 | 0.05 | 0.03 | 77 | 1016.9 |
| 20260905011549 | 16 | 264 | 0.0 | 1.6 | 0.03 | 0.05 | 0.03 | 74 | 1016.4 |
| 20260905010041 | 17 | 264 | 0.0 | 6.4 | 0.03 | 0.05 | 0.03 | 71 | 1016.1 |
| 20260905004539 | 17 | 271 | 1.6 | 6.4 | 0.00 | 0.03 | 0.00 | 64 | 1016.1 |
| 20260905003752 | 18 | 225 | 1.6 | 1.6 | 0.00 | 0.03 | 0.00 | 65 | 1017.7 |
| 20260905003033 | 18 | 279 | 3.2 | 9.7 | 0.00 | 0.03 | 0.00 | 64 | 1016.0 |
| 20260905001529 | 18 | 272 | 1.6 | 8.0 | 0.00 | 0.03 | 0.00 | 64 | 1015.3 |
| 20260905000033 | 19 | 275 | 0.0 | 6.4 | 0.00 | 0.03 | 0.00 | 65 | 1015.4 |
| 20260904234524 | 19 | 269 | 1.6 | 6.4 | 0.00 | 0.03 | 0.00 | 65 | 1015.6 |
| 20260904233825 | 20 | 248 | 3.2 | 8.0 | 0.00 | 0.03 | 0.00 | 64 | 1017.2 |
| 20260904233023 | 20 | 305 | 3.2 | 16.1 | 0.00 | 0.03 | 0.00 | 65 | 1015.2 |
| 20260904231522 | 20 | 88 | 4.8 | 16.1 | 0.00 | 0.03 | 0.00 | 66 | 1015.0 |
| 20260904230039 | 21 | 285 | 6.4 | 20.9 | 0.00 | 0.03 | 0.00 | 67 | 1014.9 |
| 20260904224513 | 22 | 269 | 3.2 | 14.5 | 0.00 | 0.03 | 0.00 | 68 | 1014.2 |
| 20260904223923 | 21 | 0.0 | 0.0 | 0.00 | 0.03 | 0.00 | 70 | 1015.3 | |
| 20260904223007 | 21 | 246 | 0.0 | 0.0 | 0.00 | 0.03 | 0.00 | 70 | 1013.3 |
| 20260904221506 | 21 | 276 | 0.0 | 0.0 | 0.00 | 0.03 | 0.00 | 70 | 1013.2 |
| 20260904220005 | 21 | 208 | 0.0 | 0.0 | 0.00 | 0.03 | 0.00 | 69 | 1012.9 |
| 20260904214503 | 21 | 208 | 0.0 | 0.0 | 0.00 | 0.03 | 0.03 | 69 | 1012.7 |
| 20260904213751 | 21 | 0.0 | 0.0 | 0.00 | 0.03 | 0.03 | 68 | 1014.3 | |
| 20260904213102 | 21 | 208 | 0.0 | 0.0 | 0.00 | 0.03 | 0.03 | 68 | 1012.5 |
| 20260904211500 | 21 | 208 | 0.0 | 0.0 | 0.00 | 0.03 | 0.03 | 68 | 1012.3 |
| 20260904210101 | 21 | 208 | 0.0 | 0.0 | 0.00 | 0.03 | 0.03 | 68 | 1012.2 |
| 20260904210003 | 21 | 208 | 0.0 | 0.0 | 0.00 | 0.03 | 0.03 | 68 | 1012.2 |
| 20260904204600 | 21 | 208 | 0.0 | 1.6 | 0.00 | 0.03 | 0.03 | 68 | 1012.2 |
| 20260904203727 | 22 | 0.0 | 0.0 | 0.00 | 0.03 | 0.03 | 67 | 1014.0 | |
| 20260904203059 | 22 | 208 | 0.0 | 3.2 | 0.00 | 0.03 | 0.03 | 66 | 1012.3 |
| 20260904201600 | 22 | 208 | 0.0 | 8.0 | 0.00 | 0.03 | 0.03 | 67 | 1012.2 |
| 20260904200108 | 22 | 201 | 1.6 | 8.0 | 0.00 | 0.03 | 0.03 | 66 | 1012.2 |
| 20260904194559 | 22 | 198 | 3.2 | 8.0 | 0.00 | 0.03 | 0.03 | 66 | 1012.2 |
| 20260904193759 | 22 | 158 | 1.6 | 4.8 | 0.00 | 0.03 | 0.03 | 66 | 1013.8 |
| 20260904193057 | 22 | 202 | 1.6 | 6.4 | 0.00 | 0.03 | 0.03 | 66 | 1012.2 |
| 20260904191557 | 22 | 205 | 0.0 | 6.4 | 0.00 | 0.03 | 0.03 | 65 | 1012.2 |
| 20260904190056 | 22 | 205 | 1.6 | 4.8 | 0.00 | 0.03 | 0.03 | 65 | 1012.3 |
| 20260904184610 | 23 | 204 | 3.2 | 8.0 | 0.00 | 0.03 | 0.03 | 65 | 1012.2 |
| 20260904183726 | 23 | 203 | 3.2 | 3.2 | 0.00 | 0.03 | 0.03 | 65 | 1013.7 |
| 20260904183054 | 23 | 194 | 3.2 | 6.4 | 0.00 | 0.03 | 0.03 | 64 | 1012.1 |
| 20260904181553 | 23 | 227 | 3.2 | 9.7 | 0.00 | 0.03 | 0.03 | 63 | 1012.2 |
| 20260904180053 | 24 | 211 | 1.6 | 12.9 | 0.00 | 0.03 | 0.03 | 62 | 1012.1 |
| 20260904174615 | 25 | 213 | 1.6 | 8.0 | 0.00 | 0.03 | 0.03 | 60 | 1012.0 |
| 20260904173756 | 26 | 203 | 1.6 | 3.2 | 0.00 | 0.03 | 0.03 | 58 | 1013.8 |
| 20260904173052 | 25 | 221 | 1.6 | 11.3 | 0.00 | 0.03 | 0.03 | 59 | 1012.2 |
| 20260904171558 | 26 | 239 | 3.2 | 9.7 | 0.00 | 0.03 | 0.03 | 58 | 1012.2 |
| 20260904170052 | 26 | 222 | 4.8 | 12.9 | 0.00 | 0.03 | 0.03 | 58 | 1012.0 |
| 20260904164550 | 26 | 225 | 3.2 | 16.1 | 0.00 | 0.05 | 0.03 | 58 | 1012.0 |
| 20260904163714 | 26 | 203 | 12.9 | 16.1 | 0.00 | 0.05 | 0.03 | 56 | 1013.9 |
| 20260904163149 | 26 | 229 | 3.2 | 16.1 | 0.00 | 0.05 | 0.03 | 58 | 1012.1 |
| 20260904161558 | 26 | 202 | 3.2 | 24.1 | 0.00 | 0.05 | 0.03 | 58 | 1012.1 |
| 20260904160047 | 26 | 219 | 4.8 | 24.1 | 0.00 | 0.05 | 0.03 | 58 | 1012.0 |
| 20260904154547 | 27 | 229 | 12.9 | 27.4 | 0.00 | 0.20 | 0.03 | 56 | 1012.0 |
| 20260904153746 | 27 | 225 | 14.5 | 19.3 | 0.00 | 0.05 | 0.03 | 57 | 1014.0 |
| 20260904153052 | 27 | 207 | 11.3 | 24.1 | 0.00 | 0.20 | 0.03 | 58 | 1012.2 |
| 20260904151547 | 27 | 204 | 9.7 | 22.5 | 0.00 | 0.20 | 0.03 | 57 | 1012.2 |
| 20260904150044 | 27 | 190 | 12.9 | 24.1 | 0.00 | 0.20 | 0.03 | 57 | 1012.2 |
| 20260904144544 | 27 | 248 | 9.7 | 27.4 | 0.00 | 0.28 | 0.03 | 57 | 1012.4 |
| 20260904143715 | 27 | 203 | 14.5 | 24.1 | 0.00 | 0.25 | 0.03 | 58 | 1014.5 |
| 20260904143041 | 27 | 201 | 9.7 | 25.7 | 0.00 | 0.28 | 0.03 | 59 | 1012.6 |
| 20260904141540 | 27 | 213 | 6.4 | 22.5 | 0.00 | 0.28 | 0.03 | 59 | 1012.7 |
| 20260904140041 | 27 | 214 | 14.5 | 19.3 | 0.00 | 0.28 | 0.03 | 57 | 1012.8 |
| 20260904134537 | 27 | 206 | 12.9 | 22.5 | 0.00 | 0.33 | 0.03 | 59 | 1013.0 |